createdAt,value
2019-02-11T00:09:56.153Z,958.7
2019-02-11T00:19:59.552Z,959.6
2019-02-11T00:30:02.945Z,959.6
2019-02-11T00:40:06.430Z,959.6
2019-02-11T00:50:09.836Z,959.7
2019-02-11T01:00:13.298Z,960.1
2019-02-11T01:10:16.724Z,960
2019-02-11T01:20:20.174Z,960
2019-02-11T01:30:23.575Z,953.5
2019-02-11T01:40:26.993Z,953.4
2019-02-11T01:50:30.395Z,954
2019-02-11T02:00:33.886Z,960.7
2019-02-11T02:10:37.318Z,960.3
2019-02-11T02:20:40.775Z,959.5
2019-02-11T02:30:44.199Z,960.5
2019-02-11T02:40:47.634Z,959.8
2019-02-11T02:50:51.134Z,959.4
2019-02-11T03:00:54.603Z,960.1
2019-02-11T03:10:58.039Z,960.3
2019-02-11T03:21:01.515Z,960.6
2019-02-11T03:31:04.950Z,961.2
2019-02-11T03:41:08.411Z,961
2019-02-11T03:51:11.856Z,960.9
2019-02-11T04:01:15.305Z,961.4
2019-02-11T04:11:18.740Z,961.9
2019-02-11T04:21:22.169Z,961.8
2019-02-11T04:31:25.610Z,962.9
2019-02-11T04:41:30.064Z,962.5
2019-02-11T04:51:33.503Z,963.3
2019-02-11T05:01:36.896Z,963.5
2019-02-11T05:11:40.356Z,963.4
2019-02-11T05:21:43.784Z,962.7
2019-02-11T05:31:47.238Z,962.6
2019-02-11T05:41:50.705Z,962.9
2019-02-11T05:51:54.139Z,963.8
2019-02-11T06:01:57.559Z,963.5
2019-02-11T06:12:00.996Z,964.1
2019-02-11T06:22:04.438Z,964.1
2019-02-11T06:32:07.913Z,964.6
2019-02-11T06:42:11.359Z,964.6
2019-02-11T06:52:14.792Z,965
2019-02-11T07:02:18.250Z,965
2019-02-11T07:12:21.675Z,965.6
2019-02-11T07:22:25.062Z,966.2
2019-02-11T07:32:28.462Z,966.1
2019-02-11T07:42:31.872Z,966.2
2019-02-11T07:52:35.317Z,966.4
2019-02-11T08:02:38.761Z,966.2
2019-02-11T08:12:42.176Z,966.7
2019-02-11T08:22:45.617Z,965.7
2019-02-11T08:32:49.033Z,965.5
2019-02-11T08:42:52.443Z,964.5
2019-02-11T08:52:55.894Z,965.9
2019-02-11T09:02:59.350Z,965.5
2019-02-11T09:13:02.774Z,965.2
2019-02-11T09:23:06.184Z,964.9
2019-02-11T09:33:09.634Z,965.1
2019-02-11T09:43:13.069Z,966.5
2019-02-11T09:53:16.507Z,966.8
2019-02-11T10:03:19.959Z,966.6
2019-02-11T10:13:23.370Z,967.6
2019-02-11T10:23:26.824Z,967.2
2019-02-11T10:33:30.319Z,964.6
2019-02-11T10:43:33.761Z,963.6
2019-02-11T10:53:37.194Z,964.5
2019-02-11T11:03:40.649Z,964.5
2019-02-11T11:13:44.084Z,964.5
2019-02-11T11:23:47.525Z,965.4
2019-02-11T11:33:50.952Z,966.4
2019-02-11T11:43:54.407Z,966.1
2019-02-11T11:53:57.849Z,966.8
2019-02-11T12:04:07.150Z,967.8
2019-02-11T12:14:10.675Z,968.6
2019-02-11T12:24:14.133Z,968.3
2019-02-11T12:34:17.604Z,967.9
2019-02-11T12:44:21.223Z,967.4
2019-02-11T12:54:24.783Z,967.7
2019-02-11T13:04:28.459Z,966.9
2019-02-11T13:14:31.953Z,967.3
2019-02-11T13:24:35.463Z,967.8
2019-02-11T13:34:38.997Z,967.5
2019-02-11T13:44:42.494Z,967.8
2019-02-11T13:54:45.965Z,968.3
2019-02-11T14:04:49.477Z,967.6
2019-02-11T14:14:53.011Z,967.5
2019-02-11T14:24:56.528Z,968.2
2019-02-11T14:35:00.057Z,968.7
2019-02-11T14:45:03.659Z,968.8
2019-02-11T14:55:07.108Z,969.4
2019-02-11T15:05:10.553Z,969.4
2019-02-11T15:15:14.011Z,969.2
2019-02-11T15:25:17.444Z,969.3
2019-02-11T15:35:20.946Z,969.9
2019-02-11T15:45:24.420Z,970.4
2019-02-11T15:55:27.885Z,971.2
2019-02-11T16:05:31.314Z,970.8
2019-02-11T16:15:34.763Z,970.8
2019-02-11T16:25:38.230Z,971
2019-02-11T16:35:41.626Z,971.7
2019-02-11T16:45:45.057Z,971.7
2019-02-11T16:55:48.503Z,971.7
2019-02-11T17:05:52.026Z,972.1
2019-02-11T17:15:55.463Z,972.4
2019-02-11T17:25:58.920Z,973
2019-02-11T17:36:02.329Z,973.4
2019-02-11T17:46:05.794Z,974.3
2019-02-11T17:56:09.249Z,974
2019-02-11T18:06:12.664Z,974.2
2019-02-11T18:16:16.124Z,974.4
2019-02-11T18:26:19.559Z,975
2019-02-11T18:36:23.000Z,975.1
2019-02-11T18:46:26.464Z,974.9
2019-02-11T18:56:29.931Z,975.4
2019-02-11T19:06:33.386Z,976
2019-02-11T19:16:36.967Z,975.8
2019-02-11T19:26:40.414Z,976.2
2019-02-11T19:36:43.898Z,976.2
2019-02-11T19:46:47.354Z,976.5
2019-02-11T19:56:50.804Z,977
2019-02-11T20:06:54.248Z,976.7
2019-02-11T20:16:57.691Z,977.6
2019-02-11T20:27:01.141Z,977
2019-02-11T20:37:04.582Z,977.3
2019-02-11T20:47:07.972Z,977.2
2019-02-11T20:57:11.416Z,977.1
2019-02-11T21:07:14.873Z,977.5
2019-02-11T21:17:18.287Z,977.4
2019-02-11T21:27:21.731Z,978
2019-02-11T21:37:25.135Z,977.7
2019-02-11T21:47:28.545Z,977.4
2019-02-11T21:57:31.987Z,977.4
2019-02-11T22:07:35.425Z,977.4
2019-02-11T22:17:38.875Z,977.5
2019-02-11T22:27:42.364Z,977.7
2019-02-11T22:37:45.815Z,977.5
2019-02-11T22:47:49.266Z,977.7
2019-02-11T22:57:52.691Z,977.9
2019-02-11T23:07:56.132Z,977.5
2019-02-11T23:17:59.577Z,977.9
2019-02-11T23:28:03.035Z,978.9
2019-02-11T23:38:06.445Z,978.5
2019-02-11T23:48:09.877Z,972
2019-02-11T23:58:13.299Z,979.3
